Time;durP1;ratioP1;P1;durP2;ratioP2;P2;SDS_P1;SDS_P2;PMS_P1;PMS_P2;Temp;Humidity;BMP_temperature;BMP_pressure;BME280_temperature;BME280_humidity;BME280_pressure;Samples;Min_cycle;Max_cycle;Signal;HPM_P1;HPM_P2
2021/03/11 00:01:53;;;;;;;15.82;8.65;;;6.60;62.00;;;;;;5104968;28;27940;-69
2021/03/11 00:04:38;;;;;;;16.40;8.88;;;6.60;62.00;;;;;;5104970;28;27387;-68
2021/03/11 00:07:22;;;;;;;14.25;8.63;;;6.60;62.00;;;;;;5104967;28;27348;-68
2021/03/11 00:10:09;;;;;;;15.57;8.68;;;6.60;62.00;;;;;;5104926;28;27364;-68
2021/03/11 00:12:54;;;;;;;17.75;8.73;;;6.60;62.00;;;;;;5104354;28;27421;-69
2021/03/11 00:15:40;;;;;;;12.38;8.10;;;6.60;62.10;;;;;;5104793;28;27508;-69
2021/03/11 00:18:25;;;;;;;15.73;9.07;;;6.60;62.20;;;;;;5101434;28;27392;-69
2021/03/11 00:21:09;;;;;;;15.00;9.48;;;6.60;62.10;;;;;;5104834;28;27316;-69
2021/03/11 00:23:54;;;;;;;17.92;8.43;;;6.60;62.20;;;;;;5089237;28;27409;-69
2021/03/11 00:26:38;;;;;;;13.85;9.70;;;6.60;62.40;;;;;;5104722;28;27387;-69
2021/03/11 00:29:24;;;;;;;13.75;8.32;;;6.60;62.40;;;;;;5104784;28;27355;-69
2021/03/11 00:32:08;;;;;;;13.88;8.65;;;6.60;62.40;;;;;;5104559;28;27359;-68
2021/03/11 00:34:53;;;;;;;15.57;9.60;;;6.60;62.40;;;;;;5104257;28;27394;-69
2021/03/11 00:37:38;;;;;;;12.75;8.90;;;6.60;62.60;;;;;;5104575;28;27382;-68
2021/03/11 00:40:22;;;;;;;14.10;8.77;;;6.60;62.50;;;;;;5089189;28;27348;-68
2021/03/11 00:43:09;;;;;;;14.32;9.02;;;6.60;62.50;;;;;;5082337;28;27663;-68
2021/03/11 00:45:53;;;;;;;14.68;9.40;;;6.60;62.40;;;;;;5080451;28;27853;-68
2021/03/11 00:48:38;;;;;;;14.93;9.65;;;6.60;62.80;;;;;;5080006;28;27357;-68
2021/03/11 00:51:23;;;;;;;13.50;9.00;;;6.60;62.80;;;;;;5065513;28;27394;-68
2021/03/11 00:54:08;;;;;;;13.93;9.40;;;6.60;62.70;;;;;;5080463;28;27390;-68
2021/03/11 00:56:53;;;;;;;19.27;9.35;;;6.60;62.70;;;;;;5081195;28;27367;-69
2021/03/11 00:59:38;;;;;;;15.45;8.57;;;6.60;62.80;;;;;;5083962;28;27399;-69
2021/03/11 01:02:23;;;;;;;16.05;10.32;;;6.60;62.70;;;;;;5084037;28;27316;-69
2021/03/11 01:05:09;;;;;;;17.25;9.40;;;6.60;62.80;;;;;;5084197;28;27378;-63
2021/03/11 01:07:54;;;;;;;15.45;10.20;;;6.60;62.70;;;;;;5087061;28;27362;-68
2021/03/11 01:10:39;;;;;;;14.63;8.82;;;6.60;62.70;;;;;;5084095;28;27330;-68
2021/03/11 01:13:24;;;;;;;15.57;8.77;;;6.60;62.50;;;;;;5086058;28;27368;-68
2021/03/11 01:16:08;;;;;;;14.15;9.32;;;6.70;62.50;;;;;;5087253;28;27343;-67
2021/03/11 01:18:53;;;;;;;19.63;9.98;;;6.70;62.40;;;;;;5087164;28;27379;-69
2021/03/11 01:21:37;;;;;;;14.20;9.50;;;6.70;62.40;;;;;;5086872;28;27348;-68
2021/03/11 01:24:21;;;;;;;13.32;8.77;;;6.70;62.40;;;;;;5086934;28;27424;-69
2021/03/11 01:27:06;;;;;;;15.07;9.45;;;6.70;62.30;;;;;;5086763;28;27285;-67
2021/03/11 01:29:51;;;;;;;12.65;8.05;;;6.70;62.40;;;;;;5086719;28;27947;-68
2021/03/11 01:32:36;;;;;;;15.65;9.15;;;6.70;62.70;;;;;;5082755;28;27396;-68
2021/03/11 01:35:20;;;;;;;13.93;8.57;;;6.70;62.60;;;;;;5086932;28;27105;-69
2021/03/11 01:38:06;;;;;;;13.63;8.70;;;6.70;62.40;;;;;;5086605;28;27520;-69
2021/03/11 01:40:52;;;;;;;12.48;7.47;;;6.70;63.50;;;;;;5086825;28;27396;-69
2021/03/11 01:43:36;;;;;;;17.67;8.70;;;6.80;63.00;;;;;;5066241;28;27526;-69
2021/03/11 01:46:24;;;;;;;14.75;8.80;;;6.80;63.00;;;;;;5066531;28;27482;-69
2021/03/11 01:49:09;;;;;;;13.50;8.77;;;6.80;63.10;;;;;;5066229;28;27345;-69
2021/03/11 01:51:53;;;;;;;12.63;7.60;;;6.80;62.80;;;;;;5066264;28;27388;-68
2021/03/11 01:54:38;;;;;;;13.57;6.93;;;6.80;63.00;;;;;;5066338;28;27387;-68
2021/03/11 01:57:22;;;;;;;11.25;7.25;;;6.80;63.30;;;;;;5066097;28;27428;-68
2021/03/11 02:00:08;;;;;;;16.88;7.43;;;6.80;63.10;;;;;;5066284;28;27414;-67
2021/03/11 02:02:59;;;;;;;10.10;6.32;;;6.90;63.40;;;;;;5065920;28;27462;-68
2021/03/11 02:05:43;;;;;;;10.43;6.60;;;6.90;63.40;;;;;;5061868;28;27436;-68
2021/03/11 02:08:28;;;;;;;10.88;6.57;;;6.90;63.40;;;;;;5066234;28;27433;-68
2021/03/11 02:11:15;;;;;;;11.25;6.15;;;6.90;63.40;;;;;;5065845;28;27647;-68
2021/03/11 02:14:22;;;;;;;11.02;6.68;;;6.90;63.40;;;;;;5065468;28;27418;-68
2021/03/11 02:17:07;;;;;;;12.30;7.15;;;6.90;63.40;;;;;;5062360;28;27499;-69
2021/03/11 02:20:11;;;;;;;12.05;6.43;;;6.90;63.30;;;;;;5065099;28;27408;-68
2021/03/11 02:23:33;;;;;;;11.43;7.00;;;6.90;63.40;;;;;;5065726;28;27423;-69
2021/03/11 02:26:29;;;;;;;11.60;7.03;;;6.90;63.40;;;;;;5065540;28;27419;-69
2021/03/11 02:29:20;;;;;;;11.90;6.82;;;6.90;63.30;;;;;;5065556;28;27527;-69
2021/03/11 02:32:06;;;;;;;10.75;6.72;;;6.90;63.30;;;;;;5064172;28;27528;-68
2021/03/11 02:34:59;;;;;;;10.70;6.75;;;6.90;63.10;;;;;;5064769;28;27394;-68
2021/03/11 02:37:47;;;;;;;12.35;7.07;;;6.90;63.00;;;;;;5064913;28;27388;-68
2021/03/11 02:40:33;;;;;;;13.90;6.95;;;6.90;63.00;;;;;;5065599;28;27455;-63
2021/03/11 02:43:18;;;;;;;11.95;6.95;;;6.90;63.00;;;;;;5103130;28;27498;-69
2021/03/11 02:46:02;;;;;;;13.05;7.25;;;6.90;63.00;;;;;;5090719;28;27466;-62
2021/03/11 02:48:48;;;;;;;10.68;7.70;;;6.90;63.00;;;;;;5091020;28;27388;-69
2021/03/11 02:51:32;;;;;;;11.23;7.20;;;6.90;63.00;;;;;;5090882;28;27518;-68
2021/03/11 02:54:17;;;;;;;12.10;6.88;;;6.90;62.70;;;;;;5103414;28;27294;-69
2021/03/11 02:57:02;;;;;;;10.38;6.25;;;6.90;62.60;;;;;;5076501;28;27425;-68
2021/03/11 02:59:47;;;;;;;9.57;6.10;;;6.90;62.60;;;;;;5105812;28;27869;-68
2021/03/11 03:02:32;;;;;;;11.75;5.60;;;6.90;62.30;;;;;;5076285;28;27425;-68
2021/03/11 03:05:18;;;;;;;9.32;5.82;;;6.90;62.30;;;;;;5106027;28;27328;-69
2021/03/11 03:08:04;;;;;;;8.30;5.45;;;6.90;62.30;;;;;;5087356;28;27505;-69
2021/03/11 03:10:49;;;;;;;8.60;6.05;;;6.90;62.30;;;;;;5105797;28;27436;-68
2021/03/11 03:13:33;;;;;;;9.10;5.82;;;7.00;62.40;;;;;;5076092;28;27477;-69
2021/03/11 03:16:18;;;;;;;8.85;6.35;;;7.00;62.40;;;;;;5076045;28;27469;-68
2021/03/11 03:19:02;;;;;;;9.02;5.45;;;7.00;62.50;;;;;;5076275;28;27427;-67
2021/03/11 03:21:47;;;;;;;9.68;5.03;;;7.00;62.60;;;;;;5104745;27;27521;-67
2021/03/11 03:24:32;;;;;;;6.47;4.90;;;7.00;62.60;;;;;;5076008;28;27435;-63
2021/03/11 03:27:18;;;;;;;7.85;4.95;;;7.00;62.60;;;;;;5090498;28;27309;-68
2021/03/11 03:30:13;;;;;;;9.07;4.60;;;7.00;62.60;;;;;;5105511;28;27437;-67
2021/03/11 03:32:58;;;;;;;7.30;4.18;;;7.00;62.90;;;;;;5105138;28;27435;-69
2021/03/11 03:35:42;;;;;;;6.43;4.22;;;7.00;63.40;;;;;;5105725;28;27395;-69
2021/03/11 03:38:26;;;;;;;5.88;3.97;;;7.00;63.80;;;;;;5105151;28;27391;-69
2021/03/11 03:41:10;;;;;;;9.98;5.28;;;7.00;63.70;;;;;;5089689;28;27333;-63
2021/03/11 03:43:55;;;;;;;7.07;4.22;;;7.00;63.90;;;;;;5089868;28;27332;-69
2021/03/11 03:46:40;;;;;;;7.53;4.25;;;7.00;64.00;;;;;;5075582;28;27388;-69
2021/03/11 03:49:25;;;;;;;7.10;3.97;;;7.00;64.30;;;;;;5089871;28;27341;-69
2021/03/11 03:52:09;;;;;;;6.30;3.67;;;7.00;64.30;;;;;;5089224;28;27672;-69
2021/03/11 03:54:54;;;;;;;6.88;3.90;;;7.00;64.30;;;;;;5089794;28;27395;-69
2021/03/11 03:57:40;;;;;;;5.43;3.60;;;7.00;64.30;;;;;;5089656;28;27403;-69
2021/03/11 04:00:25;;;;;;;6.70;3.75;;;7.00;64.10;;;;;;5104913;28;27348;-64
2021/03/11 04:03:09;;;;;;;5.97;3.70;;;7.00;63.80;;;;;;5075405;28;27347;-68
2021/03/11 04:05:54;;;;;;;5.90;3.45;;;7.00;64.50;;;;;;5089574;28;27398;-69
2021/03/11 04:08:40;;;;;;;6.18;3.22;;;7.00;63.80;;;;;;5089715;28;27494;-69
2021/03/11 04:11:24;;;;;;;5.55;3.00;;;7.00;63.90;;;;;;5089827;28;27325;-69
2021/03/11 04:14:09;;;;;;;5.45;3.05;;;7.10;64.20;;;;;;5105179;28;27416;-69
2021/03/11 04:16:54;;;;;;;6.25;3.13;;;7.10;64.30;;;;;;5075567;28;28056;-69
2021/03/11 04:19:39;;;;;;;7.68;3.42;;;7.10;64.60;;;;;;5088928;28;27525;-69
2021/03/11 04:22:23;;;;;;;4.60;3.13;;;7.20;64.70;;;;;;5089433;28;27348;-69
2021/03/11 04:25:08;;;;;;;5.60;2.92;;;7.20;64.80;;;;;;5057587;28;27392;-69
2021/03/11 04:27:53;;;;;;;5.70;2.92;;;7.20;64.90;;;;;;5101122;28;27333;-68
2021/03/11 04:30:38;;;;;;;6.95;3.00;;;7.30;65.20;;;;;;5089421;28;27332;-69
2021/03/11 04:33:22;;;;;;;6.63;3.03;;;7.30;65.40;;;;;;5106326;27;27390;-68
2021/03/11 04:36:07;;;;;;;4.55;2.97;;;7.30;65.90;;;;;;5061504;28;27365;-69
2021/03/11 04:38:52;;;;;;;5.35;2.92;;;7.40;65.60;;;;;;5093095;28;27479;-68
2021/03/11 04:41:36;;;;;;;4.18;2.63;;;7.40;65.60;;;;;;5078076;27;27476;-63
2021/03/11 04:44:22;;;;;;;4.05;2.40;;;7.50;65.60;;;;;;5092830;28;27532;-68
2021/03/11 04:47:07;;;;;;;6.25;2.50;;;7.50;65.30;;;;;;5105823;28;27466;-67
2021/03/11 04:49:52;;;;;;;5.45;2.47;;;7.50;65.80;;;;;;5078688;28;27417;-68
2021/03/11 04:52:36;;;;;;;3.20;2.08;;;7.60;66.30;;;;;;5078505;28;27483;-68
2021/03/11 04:55:21;;;;;;;4.90;2.67;;;7.60;66.50;;;;;;5078813;28;27428;-69
2021/03/11 04:58:05;;;;;;;3.75;2.20;;;7.60;66.60;;;;;;5092472;28;27468;-68
2021/03/11 05:00:50;;;;;;;4.00;2.70;;;7.70;67.50;;;;;;5092797;28;27420;-68
2021/03/11 05:03:36;;;;;;;4.70;2.60;;;7.70;67.00;;;;;;5092513;28;27421;-68
2021/03/11 05:06:21;;;;;;;5.45;2.22;;;7.70;66.90;;;;;;5092868;28;27444;-68
2021/03/11 05:09:06;;;;;;;5.18;2.63;;;7.80;66.70;;;;;;5107598;28;27454;-68
2021/03/11 05:11:50;;;;;;;9.07;2.55;;;7.80;66.80;;;;;;5107626;28;27955;-68
2021/03/11 05:14:35;;;;;;;5.47;2.50;;;7.80;66.90;;;;;;5091690;28;27478;-68
2021/03/11 05:17:19;;;;;;;3.53;2.22;;;7.90;66.90;;;;;;5107428;28;27417;-68
2021/03/11 05:20:04;;;;;;;4.00;2.47;;;7.90;66.90;;;;;;5107667;28;27419;-68
2021/03/11 05:22:49;;;;;;;6.13;2.72;;;7.90;66.90;;;;;;5107658;28;27460;-69
2021/03/11 05:25:33;;;;;;;4.57;2.22;;;7.90;66.90;;;;;;5092428;28;27497;-68
2021/03/11 05:28:19;;;;;;;8.27;3.08;;;7.90;67.10;;;;;;5107527;28;27466;-68
2021/03/11 05:31:04;;;;;;;3.08;2.13;;;7.90;67.20;;;;;;5107520;28;27434;-68
2021/03/11 05:33:48;;;;;;;4.97;2.80;;;8.00;67.20;;;;;;5106998;28;27470;-68
2021/03/11 05:36:32;;;;;;;4.95;2.75;;;8.00;67.30;;;;;;5107220;28;27458;-68
2021/03/11 05:39:17;;;;;;;4.68;2.60;;;8.00;67.20;;;;;;5091950;28;27517;-62
2021/03/11 05:42:02;;;;;;;3.72;2.35;;;8.00;67.10;;;;;;5106093;28;27406;-68
2021/03/11 05:44:47;;;;;;;3.63;2.72;;;8.00;66.90;;;;;;5091410;28;27344;-68
2021/03/11 05:47:32;;;;;;;5.13;2.60;;;8.00;67.20;;;;;;5106961;28;27404;-68
2021/03/11 05:50:17;;;;;;;3.15;2.28;;;8.00;67.30;;;;;;5107166;28;27404;-68
2021/03/11 05:53:01;;;;;;;4.45;2.90;;;8.00;67.20;;;;;;5091702;28;27378;-68
2021/03/11 05:55:46;;;;;;;4.57;2.70;;;8.10;67.40;;;;;;5091982;28;27885;-68
2021/03/11 05:58:31;;;;;;;8.40;2.60;;;8.10;67.30;;;;;;5103375;28;27602;-67
2021/03/11 06:01:15;;;;;;;6.05;2.70;;;8.10;67.20;;;;;;5091890;28;26982;-67
2021/03/11 06:04:01;;;;;;;7.65;2.58;;;8.10;67.60;;;;;;5106678;28;27327;-68
2021/03/11 06:06:46;;;;;;;7.20;2.95;;;8.20;67.90;;;;;;5106594;28;27343;-66
2021/03/11 06:09:30;;;;;;;12.65;2.75;;;8.20;67.70;;;;;;5088439;28;27396;-67
2021/03/11 06:12:15;;;;;;;9.60;2.80;;;8.20;67.70;;;;;;5076409;28;27336;-68
2021/03/11 06:15:11;;;;;;;3.58;2.40;;;8.20;67.70;;;;;;5091650;28;27392;-68
2021/03/11 06:17:55;;;;;;;3.47;2.55;;;8.30;67.80;;;;;;5106411;28;27375;-62
2021/03/11 06:20:40;;;;;;;5.03;2.17;;;8.30;67.80;;;;;;5091278;28;27411;-68
2021/03/11 06:23:24;;;;;;;7.03;2.38;;;8.30;67.90;;;;;;5091510;28;27376;-68
2021/03/11 06:26:12;;;;;;;4.57;2.55;;;8.40;67.90;;;;;;5076796;28;27410;-68
2021/03/11 06:28:57;;;;;;;4.50;2.33;;;8.40;67.60;;;;;;5091513;28;27965;-68
2021/03/11 06:31:41;;;;;;;6.00;2.40;;;8.40;67.50;;;;;;5103205;28;27598;-68
2021/03/11 06:34:27;;;;;;;9.45;2.97;;;8.40;67.50;;;;;;5106466;28;27349;-63
2021/03/11 06:37:13;;;;;;;2.60;2.05;;;8.40;67.30;;;;;;5105998;28;27371;-68
2021/03/11 06:39:58;;;;;;;2.83;1.77;;;8.50;67.40;;;;;;5103061;28;27809;-67
2021/03/11 06:42:43;;;;;;;3.92;2.47;;;8.50;67.20;;;;;;5070419;28;27602;-67
2021/03/11 06:45:28;;;;;;;6.03;2.60;;;8.60;66.90;;;;;;5082644;28;27435;-68
2021/03/11 06:48:29;;;;;;;2.72;1.88;;;8.60;67.10;;;;;;5085828;28;26907;-67
2021/03/11 06:51:18;;;;;;;3.65;2.20;;;8.60;67.10;;;;;;5085659;28;27394;-68
2021/03/11 06:54:03;;;;;;;2.70;1.90;;;8.60;67.10;;;;;;5085150;28;27478;-68
2021/03/11 06:56:48;;;;;;;2.85;1.95;;;8.70;67.20;;;;;;5084964;28;27412;-68
2021/03/11 06:59:35;;;;;;;3.70;2.10;;;8.70;66.90;;;;;;5070337;28;27352;-63
2021/03/11 07:02:23;;;;;;;3.90;1.73;;;8.80;67.60;;;;;;5085284;28;27881;-67
2021/03/11 07:05:12;;;;;;;5.10;2.03;;;8.80;66.70;;;;;;5084976;28;27485;-68
2021/03/11 07:08:14;;;;;;;4.95;2.92;;;8.90;66.60;;;;;;5085543;28;27324;-68
2021/03/11 07:11:04;;;;;;;3.17;2.00;;;9.00;66.40;;;;;;5082271;28;27379;-68
2021/03/11 07:13:49;;;;;;;3.40;2.08;;;9.10;66.40;;;;;;5084709;28;27466;-67
2021/03/11 07:16:34;;;;;;;3.83;2.13;;;9.10;66.20;;;;;;5085310;28;27420;-68
2021/03/11 07:19:20;;;;;;;6.20;2.00;;;9.20;66.30;;;;;;5085148;28;27422;-67
2021/03/11 07:22:04;;;;;;;5.60;2.15;;;9.20;66.90;;;;;;5085030;28;27389;-67
2021/03/11 07:24:49;;;;;;;3.22;1.98;;;9.30;66.00;;;;;;5084436;28;27431;-66
2021/03/11 07:27:40;;;;;;;2.50;1.88;;;9.30;65.80;;;;;;5085180;28;27473;-67
2021/03/11 07:30:25;;;;;;;4.32;2.17;;;9.40;65.60;;;;;;5085336;28;27348;-66
2021/03/11 07:33:10;;;;;;;4.20;2.13;;;9.40;65.40;;;;;;5084734;28;27382;-67
2021/03/11 07:35:56;;;;;;;4.22;2.13;;;9.50;65.60;;;;;;5069817;28;27325;-67
2021/03/11 07:38:40;;;;;;;3.67;2.17;;;9.50;65.70;;;;;;5085075;28;27345;-68
2021/03/11 07:41:25;;;;;;;4.82;2.05;;;9.50;65.50;;;;;;5086797;28;27325;-63
2021/03/11 07:44:10;;;;;;;3.55;1.98;;;9.50;66.20;;;;;;5105417;28;27336;-68
2021/03/11 07:46:55;;;;;;;2.90;1.90;;;9.60;65.40;;;;;;5089348;28;27534;-68
2021/03/11 07:49:42;;;;;;;1.75;1.58;;;9.60;65.40;;;;;;5105020;28;27410;-68
2021/03/11 07:52:26;;;;;;;2.42;1.77;;;9.60;65.30;;;;;;5089929;28;27412;-68
2021/03/11 07:55:11;;;;;;;3.20;1.90;;;9.60;65.10;;;;;;5090034;28;27375;-67
2021/03/11 07:57:57;;;;;;;2.15;1.60;;;9.70;64.90;;;;;;5101894;28;27352;-67
2021/03/11 08:00:42;;;;;;;2.88;1.65;;;9.70;65.10;;;;;;5104819;28;27399;-67
2021/03/11 08:03:27;;;;;;;2.28;1.63;;;9.70;65.30;;;;;;5089735;28;27446;-67
2021/03/11 08:06:22;;;;;;;4.28;2.50;;;9.80;65.00;;;;;;5089902;28;27382;-67
2021/03/11 08:09:07;;;;;;;3.38;1.83;;;9.90;64.70;;;;;;5104774;28;27853;-67
2021/03/11 08:11:51;;;;;;;6.25;2.00;;;10.00;64.50;;;;;;5104921;28;27423;-67
2021/03/11 08:14:35;;;;;;;4.75;2.50;;;10.10;64.20;;;;;;5105020;28;27391;-66
2021/03/11 08:17:46;;;;;;;5.80;1.50;;;10.30;64.10;;;;;;5104965;28;27443;-62
2021/03/11 08:20:35;;;;;;;3.47;2.15;;;10.50;63.60;;;;;;5104546;28;27931;-67
2021/03/11 08:23:27;;;;;;;4.50;2.65;;;10.60;63.00;;;;;;5104746;28;27413;-67
2021/03/11 08:26:12;;;;;;;3.05;2.20;;;10.80;63.10;;;;;;5104314;28;27462;-67
2021/03/11 08:28:56;;;;;;;5.45;2.22;;;10.90;62.80;;;;;;5075087;28;27540;-68
2021/03/11 08:31:41;;;;;;;4.30;2.78;;;11.00;62.50;;;;;;5089185;28;27877;-67
2021/03/11 08:34:38;;;;;;;5.47;2.00;;;11.10;62.00;;;;;;5104287;28;27489;-67
2021/03/11 08:37:23;;;;;;;5.65;2.47;;;11.20;62.30;;;;;;5104610;28;27416;-63
2021/03/11 08:40:33;;;;;;;6.65;2.63;;;11.40;62.00;;;;;;5089358;28;27386;-68
2021/03/11 08:43:36;;;;;;;4.60;2.03;;;11.60;61.30;;;;;;5082353;28;28062;-67
2021/03/11 08:46:24;;;;;;;5.43;2.53;;;11.80;61.00;;;;;;5084076;28;27378;-67
2021/03/11 08:49:08;;;;;;;4.88;2.50;;;12.00;60.60;;;;;;5083842;28;27475;-65
2021/03/11 08:51:53;;;;;;;14.38;2.95;;;12.20;60.10;;;;;;5083600;28;27396;-66
2021/03/11 08:54:37;;;;;;;49.72;4.47;;;12.30;59.80;;;;;;5083370;28;27949;-66
2021/03/11 08:57:43;;;;;;;31.65;3.53;;;12.60;59.40;;;;;;5083896;28;27325;-63
2021/03/11 09:00:54;;;;;;;16.65;2.83;;;13.00;58.40;;;;;;5084047;28;27524;-66
2021/03/11 09:03:46;;;;;;;20.45;3.40;;;13.50;57.60;;;;;;5083582;28;26975;-66
2021/03/11 09:07:11;;;;;;;10.70;2.10;;;14.00;56.60;;;;;;5083811;28;27824;-65
2021/03/11 09:09:56;;;;;;;4.68;2.45;;;14.50;55.40;;;;;;5083694;28;27573;-66
2021/03/11 09:12:41;;;;;;;5.72;1.50;;;14.70;55.10;;;;;;5082707;28;27459;-66
2021/03/11 09:15:26;;;;;;;5.68;1.95;;;14.90;55.00;;;;;;5083749;28;27414;-66
2021/03/11 09:18:12;;;;;;;6.03;1.98;;;15.10;54.70;;;;;;5083624;28;28020;-66
2021/03/11 09:20:58;;;;;;;7.22;2.15;;;15.30;54.30;;;;;;5086774;28;27438;-66
2021/03/11 09:23:43;;;;;;;4.93;1.40;;;15.50;54.00;;;;;;5087199;28;27366;-66
2021/03/11 09:26:29;;;;;;;5.28;1.63;;;15.60;54.20;;;;;;5086796;28;27454;-66
2021/03/11 09:29:15;;;;;;;4.60;1.30;;;15.80;53.90;;;;;;5086948;28;27391;-66
2021/03/11 09:31:59;;;;;;;6.00;1.80;;;15.90;54.30;;;;;;5086824;28;27391;-66
2021/03/11 09:34:57;;;;;;;3.35;1.52;;;16.00;53.60;;;;;;5086135;28;27443;-66
2021/03/11 09:37:58;;;;;;;2.53;1.48;;;16.00;53.60;;;;;;5087064;28;27378;-65
2021/03/11 09:40:44;;;;;;;2.22;1.63;;;16.00;53.80;;;;;;5086894;28;27833;-62
2021/03/11 09:43:35;;;;;;;2.25;1.27;;;15.90;53.90;;;;;;5066173;28;27375;-66
2021/03/11 09:46:21;;;;;;;3.50;1.48;;;15.90;53.60;;;;;;5066690;28;27466;-65
2021/03/11 09:49:06;;;;;;;2.28;0.98;;;15.80;53.80;;;;;;5065210;28;27420;-66
2021/03/11 09:51:50;;;;;;;2.35;1.42;;;15.80;53.90;;;;;;5066132;28;27403;-66
2021/03/11 09:54:35;;;;;;;7.55;1.48;;;15.80;54.00;;;;;;5066319;28;27419;-65
2021/03/11 09:57:19;;;;;;;1.67;1.20;;;15.80;54.00;;;;;;5066442;28;27459;-66
2021/03/11 10:00:04;;;;;;;2.05;1.20;;;15.80;54.00;;;;;;5066372;28;27470;-67
2021/03/11 10:02:56;;;;;;;6.03;2.25;;;15.70;54.30;;;;;;5065744;28;27864;-66
2021/03/11 10:05:41;;;;;;;3.22;1.48;;;15.60;54.60;;;;;;5066227;28;27380;-66
2021/03/11 10:08:32;;;;;;;3.65;1.15;;;15.40;54.80;;;;;;5065243;28;27366;-67
2021/03/11 10:11:18;;;;;;;5.13;1.30;;;15.30;55.00;;;;;;5065952;28;27420;-66
2021/03/11 10:14:02;;;;;;;5.07;0.98;;;15.20;55.00;;;;;;5065350;28;27494;-66
2021/03/11 10:16:51;;;;;;;3.70;1.15;;;15.10;55.40;;;;;;5065011;28;27480;-66
2021/03/11 10:19:36;;;;;;;1.23;0.80;;;15.10;55.50;;;;;;5066073;28;27324;-66
2021/03/11 10:22:23;;;;;;;5.68;0.80;;;15.00;55.60;;;;;;5065719;28;27313;-66
2021/03/11 10:25:14;;;;;;;2.50;0.70;;;15.00;56.20;;;;;;5066244;28;27583;-66
2021/03/11 10:27:59;;;;;;;4.82;0.77;;;15.00;56.30;;;;;;5065649;28;27368;-65
2021/03/11 10:30:43;;;;;;;8.10;0.80;;;15.00;56.20;;;;;;5063568;28;27423;-66
2021/03/11 10:33:28;;;;;;;4.28;1.60;;;15.10;56.40;;;;;;5065293;28;27336;-66
2021/03/11 10:36:15;;;;;;;5.45;1.50;;;15.10;56.40;;;;;;5064619;28;27429;-65
2021/03/11 10:39:11;;;;;;;3.15;1.05;;;15.20;56.50;;;;;;5061442;28;27333;-65
2021/03/11 10:41:57;;;;;;;3.10;0.90;;;15.30;56.30;;;;;;5079770;28;27386;-65
2021/03/11 10:44:53;;;;;;;3.10;0.90;;;15.40;56.30;;;;;;5102923;28;27323;-66
2021/03/11 10:47:37;;;;;;;0.98;0.70;;;15.60;56.40;;;;;;5092310;28;27392;-66
2021/03/11 10:50:22;;;;;;;4.00;0.80;;;15.80;55.80;;;;;;5105801;28;27423;-66
2021/03/11 10:53:07;;;;;;;0.88;0.80;;;16.00;55.40;;;;;;5105894;28;27329;-66
2021/03/11 10:55:53;;;;;;;2.28;0.77;;;16.10;55.50;;;;;;5090961;28;27352;-66
2021/03/11 10:58:37;;;;;;;3.60;1.15;;;16.20;55.50;;;;;;5105907;28;27885;-66
2021/03/11 11:01:24;;;;;;;6.28;1.25;;;16.30;55.20;;;;;;5105654;28;27391;-66
2021/03/11 11:04:08;;;;;;;11.27;2.42;;;16.50;54.80;;;;;;5105660;28;27447;-66
2021/03/11 11:06:53;;;;;;;1.45;1.15;;;16.60;54.60;;;;;;5105593;28;27399;-66
2021/03/11 11:09:39;;;;;;;1.30;1.20;;;16.60;54.60;;;;;;5075722;28;27421;-66
2021/03/11 11:12:23;;;;;;;3.05;1.20;;;16.60;55.30;;;;;;5105323;28;27432;-65
2021/03/11 11:15:08;;;;;;;2.55;1.10;;;16.60;54.20;;;;;;5105651;28;27510;-63
2021/03/11 11:17:53;;;;;;;7.22;1.60;;;16.50;54.80;;;;;;5105684;28;27399;-66
2021/03/11 11:20:38;;;;;;;2.85;1.50;;;16.30;54.70;;;;;;5105458;28;27982;-66
2021/03/11 11:23:22;;;;;;;2.03;1.58;;;16.10;55.00;;;;;;5102316;28;27391;-66
2021/03/11 11:26:07;;;;;;;2.42;1.20;;;16.00;55.50;;;;;;5105680;28;27317;-67
2021/03/11 11:28:51;;;;;;;2.35;1.50;;;15.80;55.90;;;;;;5105435;28;27382;-66
2021/03/11 11:31:36;;;;;;;2.28;1.40;;;15.70;56.60;;;;;;5105594;28;27860;-67
2021/03/11 11:34:21;;;;;;;3.70;1.38;;;15.50;57.30;;;;;;5104781;28;27340;-67
2021/03/11 11:37:05;;;;;;;2.15;1.17;;;15.30;57.70;;;;;;5105517;28;27387;-67
2021/03/11 11:39:49;;;;;;;4.32;1.58;;;15.10;58.20;;;;;;5105480;28;27344;-66
2021/03/11 11:42:34;;;;;;;1.42;1.33;;;15.00;59.10;;;;;;5104282;27;27497;-67
2021/03/11 11:45:19;;;;;;;2.20;1.00;;;14.80;59.30;;;;;;5105360;28;27400;-68
2021/03/11 11:48:03;;;;;;;1.30;1.00;;;14.70;59.60;;;;;;5105131;28;26978;-67
2021/03/11 11:50:52;;;;;;;1.92;0.90;;;14.60;59.90;;;;;;5105372;28;26971;-67
2021/03/11 11:53:36;;;;;;;0.90;0.80;;;14.60;60.70;;;;;;5089867;28;27904;-67
2021/03/11 11:56:21;;;;;;;1.52;0.88;;;14.50;60.60;;;;;;5105047;28;27328;-67
2021/03/11 11:59:05;;;;;;;1.15;1.02;;;14.50;60.80;;;;;;5105172;28;27400;-67
2021/03/11 12:01:49;;;;;;;1.98;0.90;;;14.50;61.20;;;;;;5104650;28;27398;-67
2021/03/11 12:04:34;;;;;;;1.48;1.00;;;14.50;61.00;;;;;;5104946;28;27881;-68
2021/03/11 12:07:19;;;;;;;1.10;1.00;;;14.70;61.00;;;;;;5104883;28;27472;-67
2021/03/11 12:10:05;;;;;;;1.80;1.10;;;14.90;61.30;;;;;;5104611;28;27336;-68
2021/03/11 12:12:49;;;;;;;2.15;1.27;;;15.10;60.90;;;;;;5104729;28;27367;-67
2021/03/11 12:15:34;;;;;;;2.20;1.27;;;15.20;60.90;;;;;;5104539;28;27328;-64
2021/03/11 12:18:19;;;;;;;1.25;0.90;;;15.30;60.70;;;;;;5104579;28;27415;-67
2021/03/11 12:21:04;;;;;;;2.83;0.88;;;15.50;60.30;;;;;;5104788;28;27399;-67
2021/03/11 12:23:48;;;;;;;1.23;1.10;;;15.60;60.20;;;;;;5104587;28;27459;-67
2021/03/11 12:26:32;;;;;;;1.05;0.95;;;15.80;59.70;;;;;;5104579;28;27408;-68
2021/03/11 12:29:18;;;;;;;1.98;1.25;;;15.90;59.60;;;;;;5104201;28;27417;-66
2021/03/11 12:32:03;;;;;;;1.58;1.17;;;16.00;59.30;;;;;;5104397;28;27459;-67
2021/03/11 12:34:48;;;;;;;2.20;1.10;;;16.10;59.60;;;;;;5104625;28;27411;-67
2021/03/11 12:37:33;;;;;;;1.52;0.90;;;16.10;59.50;;;;;;5104524;28;27467;-67
2021/03/11 12:40:19;;;;;;;1.55;0.80;;;16.10;59.80;;;;;;5104441;28;27490;-67
2021/03/11 12:43:03;;;;;;;0.85;0.75;;;16.00;60.20;;;;;;5103320;28;27372;-67
2021/03/11 12:45:48;;;;;;;0.82;0.82;;;16.00;60.50;;;;;;5104166;28;27416;-67
2021/03/11 12:48:33;;;;;;;1.55;0.98;;;16.10;60.00;;;;;;5104278;28;28066;-67
2021/03/11 12:51:20;;;;;;;1.17;1.05;;;16.20;60.00;;;;;;5104333;28;27411;-67
2021/03/11 12:54:04;;;;;;;2.15;1.27;;;16.40;59.60;;;;;;5105766;27;27387;-67
2021/03/11 12:56:49;;;;;;;1.50;1.08;;;16.70;59.10;;;;;;5107436;28;27362;-67
2021/03/11 12:59:33;;;;;;;1.50;1.17;;;16.90;59.10;;;;;;5107643;28;27466;-67
2021/03/11 13:02:18;;;;;;;3.00;1.10;;;17.10;58.60;;;;;;5107909;28;27416;-67
2021/03/11 13:05:04;;;;;;;1.58;0.80;;;17.20;58.40;;;;;;5108126;28;27428;-67
2021/03/11 13:07:48;;;;;;;1.17;0.90;;;17.10;58.10;;;;;;5107566;28;27399;-67
2021/03/11 13:10:33;;;;;;;1.45;0.95;;;17.00;58.30;;;;;;5107875;28;27892;-66
2021/03/11 13:13:17;;;;;;;0.93;0.80;;;16.80;58.50;;;;;;5107533;28;27446;-66
2021/03/11 13:16:02;;;;;;;0.98;0.80;;;16.70;58.80;;;;;;5107574;28;27450;-66
2021/03/11 13:18:49;;;;;;;2.63;0.98;;;16.60;59.30;;;;;;5107763;28;27408;-67
2021/03/11 13:21:34;;;;;;;1.13;0.82;;;16.50;59.90;;;;;;5107657;28;27346;-67
2021/03/11 13:24:18;;;;;;;3.25;0.90;;;16.60;59.70;;;;;;5107159;28;27521;-66
2021/03/11 13:27:03;;;;;;;5.55;0.98;;;16.80;59.50;;;;;;5104394;28;27397;-68
2021/03/11 13:29:48;;;;;;;2.92;0.98;;;16.90;59.10;;;;;;5107596;28;27458;-67
2021/03/11 13:32:32;;;;;;;5.93;0.90;;;17.00;59.10;;;;;;5107380;28;27876;-67
2021/03/11 13:35:17;;;;;;;2.08;0.90;;;17.10;58.80;;;;;;5107181;28;27485;-67
2021/03/11 13:38:02;;;;;;;3.13;1.00;;;17.30;58.90;;;;;;5107163;28;27462;-67
2021/03/11 13:40:47;;;;;;;4.25;1.50;;;17.40;58.80;;;;;;5088627;28;27415;-67
2021/03/11 13:43:31;;;;;;;1.55;1.10;;;17.50;58.60;;;;;;5088531;28;27476;-67
2021/03/11 13:46:16;;;;;;;1.60;1.00;;;17.50;58.20;;;;;;5106909;28;27454;-67
2021/03/11 13:49:00;;;;;;;2.28;1.10;;;17.70;58.10;;;;;;5106407;28;27477;-67
2021/03/11 13:51:45;;;;;;;1.20;1.10;;;17.80;57.70;;;;;;5107081;28;27442;-67
2021/03/11 13:54:29;;;;;;;0.98;0.80;;;18.00;57.50;;;;;;5106821;28;27496;-66
2021/03/11 13:57:14;;;;;;;1.13;1.02;;;18.10;57.30;;;;;;5106680;28;27438;-66
2021/03/11 13:59:58;;;;;;;0.80;0.80;;;18.40;57.20;;;;;;5106815;28;27412;-66
2021/03/11 14:02:43;;;;;;;3.22;0.98;;;18.50;56.70;;;;;;5106781;28;27336;-66
2021/03/11 14:05:28;;;;;;;3.08;0.88;;;18.60;56.70;;;;;;5106241;28;27379;-65
2021/03/11 14:08:13;;;;;;;1.02;0.73;;;18.60;56.80;;;;;;5088409;28;27381;-65
2021/03/11 14:10:58;;;;;;;2.97;0.70;;;18.70;56.60;;;;;;5106902;28;27340;-63
2021/03/11 14:13:42;;;;;;;1.05;0.70;;;18.80;56.10;;;;;;5106300;28;27383;-66
2021/03/11 14:16:27;;;;;;;0.70;0.63;;;19.00;56.20;;;;;;5106317;28;27390;-66
2021/03/11 14:19:11;;;;;;;1.23;0.80;;;19.30;55.30;;;;;;5106303;28;27403;-65
2021/03/11 14:21:56;;;;;;;1.08;0.60;;;19.70;55.00;;;;;;5106434;28;27395;-65
2021/03/11 14:24:40;;;;;;;0.77;0.55;;;20.10;54.10;;;;;;5103162;28;27356;-65
2021/03/11 14:27:28;;;;;;;0.82;0.52;;;20.00;53.30;;;;;;5106595;28;27384;-65
2021/03/11 14:30:13;;;;;;;0.40;0.40;;;20.00;52.60;;;;;;5106595;28;27391;-66